sensor_id;sensor_type;location;lat;lon;timestamp;P1;durP1;ratioP1;P2;durP2;ratioP2
3155;SDS011;1588;50.892;7.082;2024-03-23T00:57:34;21.53;;;7.20;;
3155;SDS011;1588;50.892;7.082;2024-03-23T01:02:36;28.50;;;8.23;;
3155;SDS011;1588;50.892;7.082;2024-03-23T01:07:38;27.27;;;8.80;;
3155;SDS011;1588;50.892;7.082;2024-03-23T01:12:42;22.83;;;8.20;;
3155;SDS011;1588;50.892;7.082;2024-03-23T01:17:44;18.77;;;7.00;;
3155;SDS011;1588;50.892;7.082;2024-03-23T01:22:47;33.60;;;7.67;;
3155;SDS011;1588;50.892;7.082;2024-03-23T01:27:50;29.07;;;7.00;;
3155;SDS011;1588;50.892;7.082;2024-03-23T01:32:53;27.73;;;6.80;;
3155;SDS011;1588;50.892;7.082;2024-03-23T01:37:55;21.50;;;7.10;;
3155;SDS011;1588;50.892;7.082;2024-03-23T01:42:59;26.43;;;8.30;;
3155;SDS011;1588;50.892;7.082;2024-03-23T01:48:05;19.10;;;6.80;;
3155;SDS011;1588;50.892;7.082;2024-03-23T01:53:09;13.60;;;4.03;;
3155;SDS011;1588;50.892;7.082;2024-03-23T01:58:13;17.03;;;2.63;;
3155;SDS011;1588;50.892;7.082;2024-03-23T02:03:22;4.67;;;2.77;;
3155;SDS011;1588;50.892;7.082;2024-03-23T02:08:25;6.40;;;2.90;;
3155;SDS011;1588;50.892;7.082;2024-03-23T02:13:28;8.67;;;2.80;;
3155;SDS011;1588;50.892;7.082;2024-03-23T02:18:32;10.93;;;2.50;;
3155;SDS011;1588;50.892;7.082;2024-03-23T02:23:36;5.90;;;3.07;;
3155;SDS011;1588;50.892;7.082;2024-03-23T02:28:38;8.10;;;2.93;;
3155;SDS011;1588;50.892;7.082;2024-03-23T02:33:40;16.63;;;3.13;;
3155;SDS011;1588;50.892;7.082;2024-03-23T02:38:44;6.43;;;2.37;;
3155;SDS011;1588;50.892;7.082;2024-03-23T02:43:48;4.67;;;1.80;;
3155;SDS011;1588;50.892;7.082;2024-03-23T02:48:51;8.60;;;2.67;;
3155;SDS011;1588;50.892;7.082;2024-03-23T02:53:54;14.57;;;2.97;;
3155;SDS011;1588;50.892;7.082;2024-03-23T02:58:56;6.47;;;2.70;;
3155;SDS011;1588;50.892;7.082;2024-03-23T03:04:00;9.67;;;4.40;;
3155;SDS011;1588;50.892;7.082;2024-03-23T03:09:04;11.30;;;3.60;;
3155;SDS011;1588;50.892;7.082;2024-03-23T03:14:06;11.70;;;3.77;;
3155;SDS011;1588;50.892;7.082;2024-03-23T03:19:09;12.90;;;3.10;;
3155;SDS011;1588;50.892;7.082;2024-03-23T03:24:13;10.73;;;3.67;;
3155;SDS011;1588;50.892;7.082;2024-03-23T03:29:16;7.90;;;3.30;;
3155;SDS011;1588;50.892;7.082;2024-03-23T03:34:18;18.53;;;3.27;;
3155;SDS011;1588;50.892;7.082;2024-03-23T03:39:21;16.43;;;2.93;;
3155;SDS011;1588;50.892;7.082;2024-03-23T03:44:24;6.97;;;2.70;;
3155;SDS011;1588;50.892;7.082;2024-03-23T03:49:26;8.60;;;2.60;;
3155;SDS011;1588;50.892;7.082;2024-03-23T03:54:30;23.80;;;3.07;;
3155;SDS011;1588;50.892;7.082;2024-03-23T03:59:32;10.67;;;2.80;;
3155;SDS011;1588;50.892;7.082;2024-03-23T04:04:34;12.30;;;3.20;;
3155;SDS011;1588;50.892;7.082;2024-03-23T04:09:38;6.30;;;2.40;;
3155;SDS011;1588;50.892;7.082;2024-03-23T04:14:41;16.67;;;3.97;;
3155;SDS011;1588;50.892;7.082;2024-03-23T04:19:43;16.43;;;2.37;;
3155;SDS011;1588;50.892;7.082;2024-03-23T04:24:47;6.00;;;2.50;;
3155;SDS011;1588;50.892;7.082;2024-03-23T04:29:50;13.83;;;2.90;;
3155;SDS011;1588;50.892;7.082;2024-03-23T04:34:53;19.73;;;3.67;;
3155;SDS011;1588;50.892;7.082;2024-03-23T04:39:58;17.53;;;3.40;;
3155;SDS011;1588;50.892;7.082;2024-03-23T04:45:00;8.97;;;2.87;;
3155;SDS011;1588;50.892;7.082;2024-03-23T04:50:03;10.93;;;2.93;;
3155;SDS011;1588;50.892;7.082;2024-03-23T04:55:07;7.47;;;2.30;;
3155;SDS011;1588;50.892;7.082;2024-03-23T05:00:11;14.50;;;2.67;;
3155;SDS011;1588;50.892;7.082;2024-03-23T05:05:18;10.77;;;2.40;;
3155;SDS011;1588;50.892;7.082;2024-03-23T05:10:21;9.63;;;2.33;;
3155;SDS011;1588;50.892;7.082;2024-03-23T05:15:24;11.47;;;2.10;;
3155;SDS011;1588;50.892;7.082;2024-03-23T05:20:26;6.20;;;2.03;;
3155;SDS011;1588;50.892;7.082;2024-03-23T05:25:30;7.40;;;1.97;;
3155;SDS011;1588;50.892;7.082;2024-03-23T05:30:32;9.47;;;2.10;;
3155;SDS011;1588;50.892;7.082;2024-03-23T05:35:35;14.07;;;2.10;;
3155;SDS011;1588;50.892;7.082;2024-03-23T05:40:38;26.90;;;3.50;;
3155;SDS011;1588;50.892;7.082;2024-03-23T05:45:41;13.13;;;2.43;;
3155;SDS011;1588;50.892;7.082;2024-03-23T05:50:43;11.33;;;2.83;;
3155;SDS011;1588;50.892;7.082;2024-03-23T05:55:47;6.90;;;2.90;;
3155;SDS011;1588;50.892;7.082;2024-03-23T06:00:56;11.70;;;2.57;;
3155;SDS011;1588;50.892;7.082;2024-03-23T06:05:59;10.33;;;2.50;;
3155;SDS011;1588;50.892;7.082;2024-03-23T06:11:03;6.40;;;2.43;;
3155;SDS011;1588;50.892;7.082;2024-03-23T06:16:06;10.10;;;2.30;;
3155;SDS011;1588;50.892;7.082;2024-03-23T06:21:12;10.60;;;2.67;;
3155;SDS011;1588;50.892;7.082;2024-03-23T06:26:17;14.80;;;3.10;;
3155;SDS011;1588;50.892;7.082;2024-03-23T06:31:19;15.87;;;3.20;;
3155;SDS011;1588;50.892;7.082;2024-03-23T06:36:21;10.87;;;2.60;;
3155;SDS011;1588;50.892;7.082;2024-03-23T06:41:25;16.40;;;3.07;;
3155;SDS011;1588;50.892;7.082;2024-03-23T06:46:28;7.20;;;2.90;;
3155;SDS011;1588;50.892;7.082;2024-03-23T06:51:31;18.30;;;4.20;;
3155;SDS011;1588;50.892;7.082;2024-03-23T06:56:34;15.10;;;3.10;;
3155;SDS011;1588;50.892;7.082;2024-03-23T07:01:37;9.00;;;3.10;;
3155;SDS011;1588;50.892;7.082;2024-03-23T07:06:42;10.10;;;2.80;;
3155;SDS011;1588;50.892;7.082;2024-03-23T07:11:46;13.33;;;3.20;;
3155;SDS011;1588;50.892;7.082;2024-03-23T07:16:49;18.77;;;3.60;;
3155;SDS011;1588;50.892;7.082;2024-03-23T07:21:52;24.87;;;4.57;;
3155;SDS011;1588;50.892;7.082;2024-03-23T07:26:55;14.80;;;4.57;;
3155;SDS011;1588;50.892;7.082;2024-03-23T07:31:58;17.43;;;3.87;;
3155;SDS011;1588;50.892;7.082;2024-03-23T07:37:00;11.00;;;4.43;;
3155;SDS011;1588;50.892;7.082;2024-03-23T07:42:04;17.70;;;4.77;;
3155;SDS011;1588;50.892;7.082;2024-03-23T07:47:07;11.40;;;3.80;;
3155;SDS011;1588;50.892;7.082;2024-03-23T07:52:09;12.13;;;4.17;;
3155;SDS011;1588;50.892;7.082;2024-03-23T07:57:13;15.50;;;4.27;;
3155;SDS011;1588;50.892;7.082;2024-03-23T08:02:15;16.20;;;5.03;;
3155;SDS011;1588;50.892;7.082;2024-03-23T08:07:18;12.70;;;4.07;;
3155;SDS011;1588;50.892;7.082;2024-03-23T08:12:21;9.37;;;4.37;;
3155;SDS011;1588;50.892;7.082;2024-03-23T08:17:23;25.17;;;4.80;;
3155;SDS011;1588;50.892;7.082;2024-03-23T08:22:26;17.40;;;5.10;;
3155;SDS011;1588;50.892;7.082;2024-03-23T08:27:29;16.90;;;4.37;;
3155;SDS011;1588;50.892;7.082;2024-03-23T08:32:32;12.20;;;3.10;;
3155;SDS011;1588;50.892;7.082;2024-03-23T08:37:37;9.10;;;2.40;;
3155;SDS011;1588;50.892;7.082;2024-03-23T08:42:41;6.23;;;2.33;;
3155;SDS011;1588;50.892;7.082;2024-03-23T08:47:43;7.20;;;2.87;;
3155;SDS011;1588;50.892;7.082;2024-03-23T08:52:46;9.50;;;2.80;;
3155;SDS011;1588;50.892;7.082;2024-03-23T08:57:49;6.20;;;3.00;;
3155;SDS011;1588;50.892;7.082;2024-03-23T09:02:52;6.80;;;3.83;;
3155;SDS011;1588;50.892;7.082;2024-03-23T09:07:56;11.00;;;4.30;;
3155;SDS011;1588;50.892;7.082;2024-03-23T09:18:34;17.00;;;4.43;;
3155;SDS011;1588;50.892;7.082;2024-03-23T09:23:37;13.17;;;5.20;;
3155;SDS011;1588;50.892;7.082;2024-03-23T09:28:41;13.10;;;4.60;;
3155;SDS011;1588;50.892;7.082;2024-03-23T09:33:44;17.37;;;4.83;;
3155;SDS011;1588;50.892;7.082;2024-03-23T09:38:46;13.83;;;4.03;;
3155;SDS011;1588;50.892;7.082;2024-03-23T09:43:53;9.20;;;3.93;;
3155;SDS011;1588;50.892;7.082;2024-03-23T09:48:55;11.47;;;3.90;;
3155;SDS011;1588;50.892;7.082;2024-03-23T09:53:59;7.10;;;3.40;;
3155;SDS011;1588;50.892;7.082;2024-03-23T09:59:03;17.93;;;3.63;;
3155;SDS011;1588;50.892;7.082;2024-03-23T10:04:05;9.07;;;3.00;;
3155;SDS011;1588;50.892;7.082;2024-03-23T10:09:12;7.50;;;2.50;;
3155;SDS011;1588;50.892;7.082;2024-03-23T10:14:25;5.87;;;2.20;;
3155;SDS011;1588;50.892;7.082;2024-03-23T10:19:31;5.70;;;2.20;;
3155;SDS011;1588;50.892;7.082;2024-03-23T10:24:33;7.93;;;2.00;;
3155;SDS011;1588;50.892;7.082;2024-03-23T10:29:37;4.47;;;1.93;;
3155;SDS011;1588;50.892;7.082;2024-03-23T10:34:40;2.30;;;1.80;;
3155;SDS011;1588;50.892;7.082;2024-03-23T10:39:42;3.33;;;1.67;;
3155;SDS011;1588;50.892;7.082;2024-03-23T10:44:46;9.30;;;1.93;;
3155;SDS011;1588;50.892;7.082;2024-03-23T10:49:51;4.10;;;2.20;;
3155;SDS011;1588;50.892;7.082;2024-03-23T10:54:53;7.70;;;2.50;;
3155;SDS011;1588;50.892;7.082;2024-03-23T10:59:59;6.57;;;2.07;;
3155;SDS011;1588;50.892;7.082;2024-03-23T11:05:16;4.37;;;2.00;;
3155;SDS011;1588;50.892;7.082;2024-03-23T11:10:30;2.83;;;2.00;;
3155;SDS011;1588;50.892;7.082;2024-03-23T11:15:36;5.43;;;1.50;;
3155;SDS011;1588;50.892;7.082;2024-03-23T11:20:39;4.80;;;1.40;;
3155;SDS011;1588;50.892;7.082;2024-03-23T11:25:41;3.63;;;1.67;;
3155;SDS011;1588;50.892;7.082;2024-03-23T11:30:45;6.10;;;1.47;;
3155;SDS011;1588;50.892;7.082;2024-03-23T11:35:47;10.20;;;2.17;;
3155;SDS011;1588;50.892;7.082;2024-03-23T11:40:51;5.37;;;2.03;;
3155;SDS011;1588;50.892;7.082;2024-03-23T11:45:55;4.47;;;1.90;;
3155;SDS011;1588;50.892;7.082;2024-03-23T11:50:58;4.43;;;1.53;;
3155;SDS011;1588;50.892;7.082;2024-03-23T11:56:01;4.87;;;1.50;;
3155;SDS011;1588;50.892;7.082;2024-03-23T12:01:05;5.27;;;1.87;;
3155;SDS011;1588;50.892;7.082;2024-03-23T12:06:12;1.83;;;1.10;;
3155;SDS011;1588;50.892;7.082;2024-03-23T12:11:21;3.17;;;1.40;;
3155;SDS011;1588;50.892;7.082;2024-03-23T12:16:26;2.93;;;1.67;;
3155;SDS011;1588;50.892;7.082;2024-03-23T12:21:28;3.93;;;1.27;;
3155;SDS011;1588;50.892;7.082;2024-03-23T12:26:31;5.90;;;1.40;;
3155;SDS011;1588;50.892;7.082;2024-03-23T12:31:34;6.13;;;1.80;;
3155;SDS011;1588;50.892;7.082;2024-03-23T12:36:37;5.10;;;2.10;;
3155;SDS011;1588;50.892;7.082;2024-03-23T12:41:39;2.30;;;1.77;;
3155;SDS011;1588;50.892;7.082;2024-03-23T12:46:43;5.63;;;1.13;;
3155;SDS011;1588;50.892;7.082;2024-03-23T12:51:48;4.10;;;1.63;;
3155;SDS011;1588;50.892;7.082;2024-03-23T12:56:56;2.80;;;1.27;;
3155;SDS011;1588;50.892;7.082;2024-03-23T13:01:59;1.37;;;1.27;;
3155;SDS011;1588;50.892;7.082;2024-03-23T13:07:02;1.60;;;1.50;;
3155;SDS011;1588;50.892;7.082;2024-03-23T13:12:06;5.23;;;1.17;;
3155;SDS011;1588;50.892;7.082;2024-03-23T13:17:10;8.90;;;1.40;;
3155;SDS011;1588;50.892;7.082;2024-03-23T13:22:14;7.60;;;1.10;;
3155;SDS011;1588;50.892;7.082;2024-03-23T13:27:18;1.73;;;1.23;;
3155;SDS011;1588;50.892;7.082;2024-03-23T13:32:22;2.23;;;1.30;;
3155;SDS011;1588;50.892;7.082;2024-03-23T13:37:24;5.53;;;1.47;;
3155;SDS011;1588;50.892;7.082;2024-03-23T13:42:27;4.63;;;1.53;;
3155;SDS011;1588;50.892;7.082;2024-03-23T13:47:30;7.40;;;2.50;;
3155;SDS011;1588;50.892;7.082;2024-03-23T13:52:33;5.60;;;2.03;;
3155;SDS011;1588;50.892;7.082;2024-03-23T13:57:35;4.20;;;2.20;;
3155;SDS011;1588;50.892;7.082;2024-03-23T14:02:39;3.50;;;2.30;;
3155;SDS011;1588;50.892;7.082;2024-03-23T14:07:41;2.43;;;1.90;;
3155;SDS011;1588;50.892;7.082;2024-03-23T14:12:44;3.90;;;2.27;;
3155;SDS011;1588;50.892;7.082;2024-03-23T14:17:48;7.87;;;2.10;;
3155;SDS011;1588;50.892;7.082;2024-03-23T14:22:54;2.93;;;1.30;;
3155;SDS011;1588;50.892;7.082;2024-03-23T14:27:57;1.53;;;1.30;;
3155;SDS011;1588;50.892;7.082;2024-03-23T14:33:01;1.97;;;1.10;;
3155;SDS011;1588;50.892;7.082;2024-03-23T14:38:03;2.83;;;1.30;;
3155;SDS011;1588;50.892;7.082;2024-03-23T14:43:08;3.67;;;1.27;;
3155;SDS011;1588;50.892;7.082;2024-03-23T14:48:11;1.97;;;1.30;;
3155;SDS011;1588;50.892;7.082;2024-03-23T14:53:14;3.97;;;1.50;;
3155;SDS011;1588;50.892;7.082;2024-03-23T14:58:17;5.90;;;1.53;;
3155;SDS011;1588;50.892;7.082;2024-03-23T15:03:21;2.63;;;1.67;;
3155;SDS011;1588;50.892;7.082;2024-03-23T15:08:23;1.30;;;1.20;;
3155;SDS011;1588;50.892;7.082;2024-03-23T15:13:26;3.60;;;1.90;;
3155;SDS011;1588;50.892;7.082;2024-03-23T15:18:30;20.80;;;1.40;;
3155;SDS011;1588;50.892;7.082;2024-03-23T15:23:33;1.30;;;1.03;;
3155;SDS011;1588;50.892;7.082;2024-03-23T15:28:36;2.60;;;1.20;;
3155;SDS011;1588;50.892;7.082;2024-03-23T15:33:46;2.50;;;1.53;;
3155;SDS011;1588;50.892;7.082;2024-03-23T15:38:48;4.67;;;1.70;;
3155;SDS011;1588;50.892;7.082;2024-03-23T15:43:51;2.03;;;1.50;;
3155;SDS011;1588;50.892;7.082;2024-03-23T15:48:55;6.93;;;1.53;;
3155;SDS011;1588;50.892;7.082;2024-03-23T15:53:58;3.37;;;1.60;;
3155;SDS011;1588;50.892;7.082;2024-03-23T15:59:01;4.40;;;1.50;;
3155;SDS011;1588;50.892;7.082;2024-03-23T16:04:07;4.30;;;2.10;;
3155;SDS011;1588;50.892;7.082;2024-03-23T16:09:10;3.20;;;1.83;;
3155;SDS011;1588;50.892;7.082;2024-03-23T16:14:12;5.03;;;2.30;;
3155;SDS011;1588;50.892;7.082;2024-03-23T16:19:16;4.97;;;2.47;;
3155;SDS011;1588;50.892;7.082;2024-03-23T16:24:18;5.00;;;2.60;;
3155;SDS011;1588;50.892;7.082;2024-03-23T16:29:21;3.30;;;1.60;;
3155;SDS011;1588;50.892;7.082;2024-03-23T16:34:24;7.17;;;2.63;;
3155;SDS011;1588;50.892;7.082;2024-03-23T16:39:27;3.60;;;1.97;;
3155;SDS011;1588;50.892;7.082;2024-03-23T16:44:29;5.50;;;2.10;;
3155;SDS011;1588;50.892;7.082;2024-03-23T16:49:33;3.37;;;1.83;;
3155;SDS011;1588;50.892;7.082;2024-03-23T16:54:35;4.00;;;1.60;;
3155;SDS011;1588;50.892;7.082;2024-03-23T16:59:38;2.67;;;1.50;;
3155;SDS011;1588;50.892;7.082;2024-03-23T17:04:42;2.70;;;1.40;;
3155;SDS011;1588;50.892;7.082;2024-03-23T17:09:46;2.30;;;1.37;;
3155;SDS011;1588;50.892;7.082;2024-03-23T17:14:49;1.70;;;1.50;;
3155;SDS011;1588;50.892;7.082;2024-03-23T17:19:55;4.00;;;1.73;;
3155;SDS011;1588;50.892;7.082;2024-03-23T17:25:00;3.33;;;1.47;;
3155;SDS011;1588;50.892;7.082;2024-03-23T17:30:04;5.73;;;1.43;;
3155;SDS011;1588;50.892;7.082;2024-03-23T17:35:08;1.10;;;1.00;;
3155;SDS011;1588;50.892;7.082;2024-03-23T17:40:12;3.90;;;1.60;;
3155;SDS011;1588;50.892;7.082;2024-03-23T17:45:14;3.00;;;1.63;;
3155;SDS011;1588;50.892;7.082;2024-03-23T17:50:18;1.47;;;1.30;;
3155;SDS011;1588;50.892;7.082;2024-03-23T17:55:21;1.40;;;1.30;;
3155;SDS011;1588;50.892;7.082;2024-03-23T18:00:23;2.33;;;1.60;;
3155;SDS011;1588;50.892;7.082;2024-03-23T18:05:27;3.67;;;2.07;;
3155;SDS011;1588;50.892;7.082;2024-03-23T18:10:29;2.20;;;1.70;;
3155;SDS011;1588;50.892;7.082;2024-03-23T18:15:31;4.67;;;1.90;;
3155;SDS011;1588;50.892;7.082;2024-03-23T18:20:35;5.50;;;2.00;;
3155;SDS011;1588;50.892;7.082;2024-03-23T18:25:38;7.60;;;2.60;;
3155;SDS011;1588;50.892;7.082;2024-03-23T18:30:40;3.07;;;1.83;;
3155;SDS011;1588;50.892;7.082;2024-03-23T18:35:44;3.10;;;2.00;;
3155;SDS011;1588;50.892;7.082;2024-03-23T18:40:51;2.80;;;1.90;;
3155;SDS011;1588;50.892;7.082;2024-03-23T18:45:54;3.17;;;2.17;;
3155;SDS011;1588;50.892;7.082;2024-03-23T18:51:01;4.63;;;1.97;;
3155;SDS011;1588;50.892;7.082;2024-03-23T18:56:04;3.30;;;1.80;;
3155;SDS011;1588;50.892;7.082;2024-03-23T19:01:06;3.60;;;2.30;;
3155;SDS011;1588;50.892;7.082;2024-03-23T19:06:11;2.80;;;1.50;;
3155;SDS011;1588;50.892;7.082;2024-03-23T19:11:13;4.30;;;1.67;;
3155;SDS011;1588;50.892;7.082;2024-03-23T19:16:15;3.60;;;1.80;;
3155;SDS011;1588;50.892;7.082;2024-03-23T19:21:19;6.20;;;2.40;;
3155;SDS011;1588;50.892;7.082;2024-03-23T19:26:22;2.80;;;1.90;;
3155;SDS011;1588;50.892;7.082;2024-03-23T19:31:24;5.47;;;1.90;;
3155;SDS011;1588;50.892;7.082;2024-03-23T19:36:28;4.33;;;2.53;;
3155;SDS011;1588;50.892;7.082;2024-03-23T19:41:31;9.93;;;3.10;;
3155;SDS011;1588;50.892;7.082;2024-03-23T19:46:33;2.80;;;2.50;;
3155;SDS011;1588;50.892;7.082;2024-03-23T19:51:37;2.87;;;2.10;;
3155;SDS011;1588;50.892;7.082;2024-03-23T19:56:39;3.70;;;2.10;;
3155;SDS011;1588;50.892;7.082;2024-03-23T20:01:42;13.57;;;5.33;;
3155;SDS011;1588;50.892;7.082;2024-03-23T20:06:46;8.50;;;3.50;;
3155;SDS011;1588;50.892;7.082;2024-03-23T20:11:49;7.17;;;3.20;;
3155;SDS011;1588;50.892;7.082;2024-03-23T20:16:55;5.73;;;2.90;;
3155;SDS011;1588;50.892;7.082;2024-03-23T20:21:59;2.30;;;2.00;;
3155;SDS011;1588;50.892;7.082;2024-03-23T20:27:02;3.27;;;2.37;;
3155;SDS011;1588;50.892;7.082;2024-03-23T20:32:05;4.83;;;2.60;;
3155;SDS011;1588;50.892;7.082;2024-03-23T20:37:09;9.03;;;2.70;;
3155;SDS011;1588;50.892;7.082;2024-03-23T20:42:12;4.03;;;2.47;;
3155;SDS011;1588;50.892;7.082;2024-03-23T20:47:15;8.10;;;3.60;;
3155;SDS011;1588;50.892;7.082;2024-03-23T20:52:19;4.70;;;2.00;;
3155;SDS011;1588;50.892;7.082;2024-03-23T20:57:21;12.27;;;2.90;;
3155;SDS011;1588;50.892;7.082;2024-03-23T21:02:24;6.97;;;3.10;;
3155;SDS011;1588;50.892;7.082;2024-03-23T21:07:27;8.03;;;3.13;;
3155;SDS011;1588;50.892;7.082;2024-03-23T21:12:30;9.17;;;2.63;;
3155;SDS011;1588;50.892;7.082;2024-03-23T21:17:32;14.30;;;2.40;;
3155;SDS011;1588;50.892;7.082;2024-03-23T21:22:36;7.30;;;2.10;;
3155;SDS011;1588;50.892;7.082;2024-03-23T21:27:39;5.87;;;2.50;;
3155;SDS011;1588;50.892;7.082;2024-03-23T21:32:41;6.40;;;3.33;;
3155;SDS011;1588;50.892;7.082;2024-03-23T21:37:45;10.73;;;2.10;;
3155;SDS011;1588;50.892;7.082;2024-03-23T21:42:47;6.63;;;2.60;;
3155;SDS011;1588;50.892;7.082;2024-03-23T21:47:50;6.00;;;2.07;;
3155;SDS011;1588;50.892;7.082;2024-03-23T21:52:53;4.93;;;2.57;;
3155;SDS011;1588;50.892;7.082;2024-03-23T21:57:56;5.90;;;2.23;;
3155;SDS011;1588;50.892;7.082;2024-03-23T22:02:58;3.67;;;2.03;;
3155;SDS011;1588;50.892;7.082;2024-03-23T22:08:02;7.53;;;2.17;;
3155;SDS011;1588;50.892;7.082;2024-03-23T22:13:05;12.33;;;2.70;;
3155;SDS011;1588;50.892;7.082;2024-03-23T22:18:07;5.43;;;2.40;;
3155;SDS011;1588;50.892;7.082;2024-03-23T22:23:11;8.47;;;2.50;;
3155;SDS011;1588;50.892;7.082;2024-03-23T22:28:13;4.63;;;2.53;;
3155;SDS011;1588;50.892;7.082;2024-03-23T22:33:15;4.90;;;2.10;;
3155;SDS011;1588;50.892;7.082;2024-03-23T22:38:19;2.40;;;1.30;;
3155;SDS011;1588;50.892;7.082;2024-03-23T22:43:22;3.17;;;1.67;;
3155;SDS011;1588;50.892;7.082;2024-03-23T22:48:25;3.03;;;1.70;;
3155;SDS011;1588;50.892;7.082;2024-03-23T22:53:30;3.13;;;1.50;;
3155;SDS011;1588;50.892;7.082;2024-03-23T22:58:32;6.47;;;2.20;;
3155;SDS011;1588;50.892;7.082;2024-03-23T23:03:35;6.23;;;2.70;;
3155;SDS011;1588;50.892;7.082;2024-03-23T23:08:38;3.20;;;2.10;;
3155;SDS011;1588;50.892;7.082;2024-03-23T23:13:41;2.90;;;2.20;;
3155;SDS011;1588;50.892;7.082;2024-03-23T23:18:43;9.47;;;2.30;;
3155;SDS011;1588;50.892;7.082;2024-03-23T23:23:47;4.67;;;1.83;;
3155;SDS011;1588;50.892;7.082;2024-03-23T23:28:49;5.30;;;2.23;;
3155;SDS011;1588;50.892;7.082;2024-03-23T23:33:52;4.30;;;1.93;;
3155;SDS011;1588;50.892;7.082;2024-03-23T23:38:55;2.00;;;1.70;;
3155;SDS011;1588;50.892;7.082;2024-03-23T23:43:57;3.90;;;2.33;;
3155;SDS011;1588;50.892;7.082;2024-03-23T23:49:00;2.47;;;2.03;;
3155;SDS011;1588;50.892;7.082;2024-03-23T23:54:04;5.17;;;2.40;;
3155;SDS011;1588;50.892;7.082;2024-03-23T23:59:06;3.43;;;1.93;;
